Time;durP1;ratioP1;P1;durP2;ratioP2;P2;SDS_P1;SDS_P2;PMS_P1;PMS_P2;Temp;Humidity;BMP_temperature;BMP_pressure;BME280_temperature;BME280_humidity;BME280_pressure;Samples;Min_cycle;Max_cycle;Signal;HPM_P1;HPM_P2
2022/08/31 00:04:31;;;;;;;5.35;4.10;;;;;;;14.58;79.42;100655.08;2184705;80;20993;-69
2022/08/31 00:07:33;;;;;;;6.50;2.83;;;;;;;14.61;79.60;100660.05;2192247;80;20986;-70
2022/08/31 00:10:39;;;;;;;7.37;3.37;;;;;;;14.64;79.62;100658.38;2192840;80;21072;-69
2022/08/31 00:13:41;;;;;;;6.97;3.33;;;;;;;14.62;79.79;100657.73;2194065;80;21528;-69
2022/08/31 00:16:44;;;;;;;5.87;3.27;;;;;;;14.66;79.92;100659.52;2194126;80;21533;-69
2022/08/31 00:19:45;;;;;;;6.78;4.53;;;;;;;14.67;79.97;100659.83;2189928;80;21014;-68
2022/08/31 00:22:46;;;;;;;5.58;3.45;;;;;;;14.66;80.13;100663.02;2185823;80;21525;-68
2022/08/31 00:25:48;;;;;;;6.85;3.85;;;;;;;14.64;80.21;100662.88;2193461;80;21065;-68
2022/08/31 00:28:50;;;;;;;4.67;3.58;;;;;;;14.62;80.28;100662.24;2189660;80;20990;-69
2022/08/31 00:31:51;;;;;;;7.15;3.52;;;;;;;14.65;80.40;100656.03;2169349;79;20998;-68
2022/08/31 00:34:52;;;;;;;5.45;3.80;;;;;;;14.68;80.44;100657.00;2183964;79;20998;-69
2022/08/31 00:37:54;;;;;;;8.60;3.90;;;;;;;14.66;80.47;100656.34;2192838;80;21018;-68
2022/08/31 00:40:55;;;;;;;7.53;4.62;;;;;;;14.60;80.61;100657.58;2186867;80;21442;-68
2022/08/31 00:44:00;;;;;;;6.12;3.92;;;;;;;14.55;80.69;100656.77;2190682;80;20955;-68
2022/08/31 00:47:02;;;;;;;5.80;4.00;;;;;;;14.54;80.86;100660.45;2191280;80;21057;-68
2022/08/31 00:50:08;;;;;;;7.30;4.70;;;;;;;14.54;81.06;100655.13;2186358;80;21057;-69
2022/08/31 00:53:09;;;;;;;11.10;5.87;;;;;;;14.59;81.35;100660.76;2191615;80;21445;-70
2022/08/31 00:56:10;;;;;;;7.70;4.20;;;;;;;14.60;81.37;100654.91;2189687;80;20998;-71
2022/08/31 00:59:14;;;;;;;5.37;3.77;;;;;;;14.61;81.47;100653.38;2186379;80;20967;-68
2022/08/31 01:02:16;;;;;;;7.10;4.17;;;;;;;14.63;81.47;100646.53;2189562;80;20986;-68
2022/08/31 01:05:18;;;;;;;6.67;4.50;;;;;;;14.61;81.48;100647.20;2165362;80;20958;-68
2022/08/31 01:08:20;;;;;;;8.83;4.08;;;;;;;14.62;81.64;100646.22;2166721;80;21052;-70
2022/08/31 01:11:21;;;;;;;6.03;4.03;;;;;;;14.64;81.70;100638.83;2164516;80;21029;-69
2022/08/31 01:14:23;;;;;;;5.47;4.35;;;;;;;14.61;81.78;100638.69;2189485;80;20947;-68
2022/08/31 01:17:25;;;;;;;8.38;4.70;;;;;;;14.61;81.91;100640.02;2188527;79;21049;-69
2022/08/31 01:20:47;;;;;;;7.62;4.53;;;;;;;14.58;82.00;100632.38;2190670;80;20940;-73
2022/08/31 01:23:46;;;;;;;;;;;;;;;14.57;82.31;100626.20;2148185;80;21541;-69
2022/08/31 01:26:48;;;;;;;6.28;4.50;;;;;;;14.59;82.77;100629.22;2194649;79;20113;-69
2022/08/31 01:29:49;;;;;;;7.62;4.60;;;;;;;14.56;82.77;100622.40;2191812;80;21484;-68
2022/08/31 01:32:50;;;;;;;7.72;4.03;;;;;;;14.59;82.74;100634.05;2197426;80;21088;-68
2022/08/31 01:35:52;;;;;;;8.45;4.17;;;;;;;14.60;82.67;100631.70;2192632;80;21001;-73
2022/08/31 01:38:55;;;;;;;4.75;3.67;;;;;;;14.60;82.70;100631.70;2196356;80;21037;-71
2022/08/31 01:41:56;;;;;;;7.55;4.35;;;;;;;14.62;82.77;100628.34;2193456;80;20981;-68
2022/08/31 01:44:57;;;;;;;4.42;3.72;;;;;;;14.67;82.90;100633.13;2192124;80;21015;-69
2022/08/31 01:47:59;;;;;;;5.72;3.55;;;;;;;14.64;82.75;100634.34;2186089;80;21033;-69
2022/08/31 01:51:00;;;;;;;7.60;3.95;;;;;;;14.60;82.72;100630.88;2195627;80;21507;-68
2022/08/31 01:54:02;;;;;;;9.18;3.70;;;;;;;14.55;82.79;100639.41;2164000;80;21486;-70
2022/08/31 01:57:04;;;;;;;7.87;3.60;;;;;;;14.51;82.81;100628.75;2188489;80;21027;-71
2022/08/31 02:00:19;;;;;;;7.25;3.70;;;;;;;14.54;82.95;100637.25;2106294;80;20982;-69
2022/08/31 02:03:20;;;;;;;6.08;3.60;;;;;;;14.59;83.05;100639.39;2187207;80;21062;-69
2022/08/31 02:06:21;;;;;;;6.70;4.05;;;;;;;14.61;82.95;100637.86;2188332;80;21001;-68
2022/08/31 02:09:23;;;;;;;7.35;3.35;;;;;;;14.64;82.91;100649.52;2166987;80;20958;-69
2022/08/31 02:12:25;;;;;;;7.15;3.00;;;;;;;14.66;82.88;100639.49;2189934;80;21010;-69
2022/08/31 02:15:26;;;;;;;8.38;3.83;;;;;;;14.66;82.81;100637.64;2183456;79;20971;-70
2022/08/31 02:18:27;;;;;;;7.85;3.87;;;;;;;14.66;82.83;100632.81;2188296;80;20983;-68
2022/08/31 02:21:28;;;;;;;8.18;4.12;;;;;;;14.64;82.84;100633.02;2193983;80;21019;-69
2022/08/31 02:24:32;;;;;;;3.62;3.22;;;;;;;14.64;82.91;100631.67;2192164;79;21046;-69
2022/08/31 02:27:35;;;;;;;7.00;3.83;;;;;;;14.64;83.01;100630.82;2194860;80;21022;-69
2022/08/31 02:30:41;;;;;;;6.10;4.03;;;;;;;14.65;83.06;100639.17;2189452;80;20983;-68
2022/08/31 02:33:43;;;;;;;6.22;3.83;;;;;;;14.65;83.09;100640.00;2188791;80;21508;-71
2022/08/31 02:36:44;;;;;;;6.87;4.20;;;;;;;14.66;83.22;100640.31;2190610;79;20993;-69
2022/08/31 02:39:46;;;;;;;8.45;4.72;;;;;;;14.61;83.25;100625.33;2193161;80;21013;-68
2022/08/31 02:42:47;;;;;;;8.23;3.98;;;;;;;14.57;83.28;100633.39;2191552;80;21002;-69
2022/08/31 02:45:52;;;;;;;6.53;4.40;;;;;;;14.56;83.48;100627.73;2145721;82;21022;-69
2022/08/31 02:48:55;;;;;;;7.40;4.35;;;;;;;14.56;83.49;100633.91;2146972;81;21042;-69
2022/08/31 02:51:56;;;;;;;9.60;4.40;;;;;;;14.55;83.39;100629.55;2107471;82;21050;-68
2022/08/31 02:54:58;;;;;;;10.08;4.03;;;;;;;14.54;83.41;100629.75;2149829;82;21042;-70
2022/08/31 02:57:59;;;;;;;4.53;3.70;;;;;;;14.51;83.49;100626.90;2146814;82;20998;-70
2022/08/31 03:01:00;;;;;;;6.17;4.05;;;;;;;14.52;83.59;100625.91;2145060;82;20975;-71
2022/08/31 03:04:04;;;;;;;5.80;3.85;;;;;;;14.53;83.55;100622.77;2130300;82;20973;-68
2022/08/31 03:07:05;;;;;;;7.12;3.95;;;;;;;14.52;83.48;100618.41;2146642;82;20919;-69
2022/08/31 03:10:09;;;;;;;9.03;3.60;;;;;;;14.53;83.53;100616.91;2124674;82;21538;-71
2022/08/31 03:13:11;;;;;;;7.95;3.40;;;;;;;14.52;83.46;100619.23;2153380;82;21001;-70
2022/08/31 03:16:14;;;;;;;6.08;3.12;;;;;;;14.53;83.55;100624.09;2144818;82;20995;-69
2022/08/31 03:19:15;;;;;;;5.97;4.10;;;;;;;14.52;83.55;100628.58;2148607;82;21064;-69
2022/08/31 03:22:16;;;;;;;6.97;4.00;;;;;;;14.51;83.59;100628.23;2152052;82;21026;-68
2022/08/31 03:25:18;;;;;;;5.75;3.67;;;;;;;14.52;83.76;100628.58;2152107;82;20999;-71
2022/08/31 03:28:19;;;;;;;5.60;3.52;;;;;;;14.54;83.84;100629.75;2140769;81;21017;-69
2022/08/31 03:31:24;;;;;;;7.22;4.10;;;;;;;14.53;83.75;100629.44;2146763;81;21504;-69
2022/08/31 03:34:25;;;;;;;6.78;3.80;;;;;;;14.46;83.88;100633.79;2115288;81;21108;-68
2022/08/31 03:37:27;;;;;;;8.38;3.90;;;;;;;14.39;84.08;100634.17;2149899;82;21018;-68
2022/08/31 03:40:30;;;;;;;4.83;3.67;;;;;;;14.35;84.21;100630.52;2118212;81;21000;-70
2022/08/31 03:43:32;;;;;;;7.60;3.70;;;;;;;14.39;84.43;100635.50;2142683;81;20973;-70
2022/08/31 03:46:34;;;;;;;7.35;3.77;;;;;;;14.43;84.43;100632.81;2144226;81;21405;-68
2022/08/31 03:49:35;;;;;;;7.75;4.17;;;;;;;14.46;84.47;100635.12;2144422;81;21517;-71
2022/08/31 03:52:44;;;;;;;6.00;3.62;;;;;;;14.47;84.38;100636.77;2143356;81;21008;-68
2022/08/31 03:55:47;;;;;;;5.35;3.92;;;;;;;14.45;84.42;100636.15;2120652;81;20982;-69
2022/08/31 03:58:49;;;;;;;4.78;4.03;;;;;;;14.46;84.50;100631.13;2143003;81;21046;-73
2022/08/31 04:02:05;;;;;;;11.33;3.83;;;;;;;14.48;84.55;100637.95;2136126;81;21439;-70
2022/08/31 04:05:30;;;;;;;5.63;3.70;;;;;;;14.51;84.53;100639.43;2138771;81;20995;-68
2022/08/31 04:08:50;;;;;;;5.33;3.87;;;;;;;14.53;84.52;100641.45;2141111;81;20947;-68
2022/08/31 04:12:13;;;;;;;6.78;4.35;;;;;;;14.54;84.46;100639.09;2147866;81;21007;-68
2022/08/31 04:15:25;;;;;;;8.85;4.42;;;;;;;14.54;84.45;100632.42;2141000;81;21913;-69
2022/08/31 04:18:45;;;;;;;9.20;4.40;;;;;;;14.57;84.48;100634.73;2143242;81;21002;-68
2022/08/31 04:21:48;;;;;;;7.62;4.75;;;;;;;14.59;84.50;100633.23;2144177;81;21022;-69
2022/08/31 04:24:49;;;;;;;5.53;4.65;;;;;;;14.60;84.42;100636.21;2147982;81;21013;-69
2022/08/31 04:27:53;;;;;;;8.90;4.80;;;;;;;14.57;84.40;100638.22;2137806;81;21068;-70
2022/08/31 04:30:53;;;;;;;10.03;5.08;;;;;;;14.56;84.49;100641.09;2149496;81;21107;-70
2022/08/31 04:33:56;;;;;;;8.50;4.90;;;;;;;14.51;84.49;100646.10;2140850;81;21066;-68
2022/08/31 04:36:56;;;;;;;8.70;4.72;;;;;;;14.55;84.71;100642.08;2142763;81;21520;-69
2022/08/31 04:40:00;;;;;;;7.70;5.35;;;;;;;14.57;84.59;100646.75;2118534;81;21051;-69
2022/08/31 04:43:01;;;;;;;8.18;5.05;;;;;;;14.57;84.63;100658.77;2123762;81;21506;-68
2022/08/31 04:46:04;;;;;;;9.30;5.58;;;;;;;14.54;84.83;100652.45;2133473;81;21084;-69
2022/08/31 04:49:08;;;;;;;9.00;5.47;;;;;;;14.49;85.39;100654.79;2137802;81;21030;-69
2022/08/31 04:52:12;;;;;;;7.35;5.60;;;;;;;14.44;85.90;100657.16;2152103;81;21486;-68
2022/08/31 04:55:13;;;;;;;10.13;6.20;;;;;;;14.41;86.05;100664.20;2133597;83;21441;-71
2022/08/31 04:58:16;;;;;;;12.58;6.20;;;;;;;14.43;86.20;100668.34;2135579;82;21066;-69
2022/08/31 05:01:22;;;;;;;8.73;5.90;;;;;;;14.49;86.31;100668.14;2137001;83;21525;-69
2022/08/31 05:04:41;;;;;;;13.75;5.87;;;;;;;14.57;86.33;100661.44;2126316;81;20991;-69
2022/08/31 05:07:44;;;;;;;6.00;5.40;;;;;;;14.67;86.39;100660.69;2130966;83;21023;-73
2022/08/31 05:10:52;;;;;;;10.93;6.30;;;;;;;14.78;86.39;100670.95;2136261;82;21569;-71
2022/08/31 05:13:56;;;;;;;9.95;5.95;;;;;;;14.91;86.46;100676.16;2136973;83;21054;-69
2022/08/31 05:17:00;;;;;;;10.63;6.37;;;;;;;15.04;86.48;100672.88;2123586;82;21042;-70
2022/08/31 05:20:01;;;;;;;7.72;5.42;;;;;;;15.12;86.40;100680.79;2092492;82;21525;-71
2022/08/31 05:23:03;;;;;;;8.35;5.78;;;;;;;15.15;86.41;100675.93;2112806;83;21433;-74
2022/08/31 05:26:05;;;;;;;11.00;6.10;;;;;;;15.12;86.38;100678.97;2136381;82;21495;-72
2022/08/31 05:29:08;;;;;;;11.43;5.80;;;;;;;15.12;86.84;100680.79;2108777;83;21350;-69
2022/08/31 05:32:13;;;;;;;11.83;5.90;;;;;;;15.12;86.98;100676.78;2114978;83;21048;-70
2022/08/31 05:35:16;;;;;;;8.05;5.20;;;;;;;15.14;87.31;100683.61;2130119;83;21008;-69
2022/08/31 05:38:20;;;;;;;6.53;5.03;;;;;;;15.23;87.16;100679.00;2087891;83;21530;-69
2022/08/31 05:41:22;;;;;;;11.10;5.65;;;;;;;15.35;87.09;100681.56;2136604;83;21451;-70
2022/08/31 05:44:25;;;;;;;6.00;5.17;;;;;;;15.45;86.91;100685.28;2137478;81;20964;-68
2022/08/31 05:47:27;;;;;;;7.92;4.78;;;;;;;15.54;86.83;100692.22;2137413;83;21090;-72
2022/08/31 05:50:30;;;;;;;6.08;5.20;;;;;;;15.68;86.85;100698.09;2129494;83;21550;-71
2022/08/31 05:53:33;;;;;;;10.13;4.97;;;;;;;15.85;86.85;100705.89;2135162;83;21525;-69
2022/08/31 05:56:37;;;;;;;6.95;4.53;;;;;;;15.96;86.43;100705.41;2134627;82;20949;-71
2022/08/31 05:59:39;;;;;;;8.55;5.72;;;;;;;15.97;85.94;100714.30;2100772;83;21061;-72
2022/08/31 06:02:41;;;;;;;7.15;4.87;;;;;;;15.93;86.06;100715.16;2134356;83;21085;-69
2022/08/31 06:05:44;;;;;;;11.78;4.95;;;;;;;15.93;86.09;100715.67;2137177;81;21061;-69
2022/08/31 06:08:46;;;;;;;7.45;4.95;;;;;;;15.91;86.18;100722.56;2135322;82;21494;-70
2022/08/31 06:11:47;;;;;;;9.05;5.35;;;;;;;15.95;86.22;100718.48;2129858;82;21548;-70
2022/08/31 06:14:50;;;;;;;7.85;5.08;;;;;;;15.97;86.08;100727.16;2133607;83;21480;-70
2022/08/31 06:17:51;;;;;;;7.25;5.15;;;;;;;16.04;86.05;100725.89;2135370;82;21030;-71
2022/08/31 06:21:09;;;;;;;8.93;5.37;;;;;;;16.11;85.87;100730.31;2134780;83;21026;-69
2022/08/31 06:24:13;;;;;;;5.65;4.40;;;;;;;16.22;85.55;100736.18;2126070;83;21038;-73
2022/08/31 06:27:14;;;;;;;6.67;4.90;;;;;;;16.32;85.67;100744.75;2114301;83;20924;-74
2022/08/31 06:30:20;;;;;;;7.42;5.00;;;;;;;16.42;85.45;100738.59;2131109;82;21683;-70
2022/08/31 06:33:24;;;;;;;7.75;4.65;;;;;;;16.52;85.19;100737.75;2134998;81;21040;-71
2022/08/31 06:36:36;;;;;;;7.75;4.42;;;;;;;16.61;85.12;100740.31;2118060;83;21057;-70
2022/08/31 06:39:52;;;;;;;6.05;4.17;;;;;;;16.67;84.24;100745.75;2109343;83;21063;-70
2022/08/31 06:43:11;;;;;;;;;;;;;;;16.66;83.69;100743.25;2137635;82;21066;-70
2022/08/31 06:46:33;;;;;;;;;;;;;;;16.62;83.45;100751.36;2065150;85;20117;-70
2022/08/31 06:49:39;;;;;;;9.03;4.33;;;;;;;16.64;83.48;100751.98;2046105;85;20194;-69
2022/08/31 06:52:41;;;;;;;7.92;3.60;;;;;;;16.68;83.27;100761.31;2035719;85;21658;-71
2022/08/31 06:55:53;;;;;;;4.47;3.65;;;;;;;16.69;83.05;100764.30;2125664;83;21004;-69
2022/08/31 06:59:12;;;;;;;10.35;3.85;;;;;;;16.70;82.80;100757.94;2133474;82;20967;-69
2022/08/31 07:02:34;;;;;;;5.60;3.70;;;;;;;16.71;82.84;100759.07;2115364;82;21122;-71
2022/08/31 07:05:37;;;;;;;7.53;3.35;;;;;;;16.72;82.90;100762.58;2138139;82;20975;-70
2022/08/31 07:08:40;;;;;;;6.55;3.75;;;;;;;16.78;83.03;100757.81;2127018;82;21022;-70
2022/08/31 07:11:50;;;;;;;8.45;4.12;;;;;;;16.82;82.40;100759.63;2134064;83;21006;-70
2022/08/31 07:14:51;;;;;;;4.62;2.70;;;;;;;16.78;82.16;100759.16;2109495;83;21469;-69
2022/08/31 07:17:55;;;;;;;5.75;2.95;;;;;;;16.75;82.21;100763.53;2134453;82;21021;-69
2022/08/31 07:21:13;;;;;;;7.58;3.55;;;;;;;16.72;82.30;100763.91;2138862;83;21035;-73
2022/08/31 07:24:23;;;;;;;4.05;3.40;;;;;;;16.68;82.35;100762.65;2136460;83;21007;-71
2022/08/31 07:27:24;;;;;;;5.67;3.42;;;;;;;16.68;82.37;100766.67;2133754;82;21003;-70
2022/08/31 07:30:32;;;;;;;5.90;3.30;;;;;;;16.74;82.68;100763.22;2131244;83;20979;-69
2022/08/31 07:33:37;;;;;;;8.00;3.25;;;;;;;16.84;82.46;100762.91;2134554;82;21726;-70
2022/08/31 07:43:22;;;;;;;5.03;2.95;;;;;;;16.92;81.38;100769.48;2112219;82;21618;-68
2022/08/31 07:46:30;;;;;;;5.83;3.40;;;;;;;16.89;81.24;100770.70;2126610;82;21013;-72
2022/08/31 07:49:31;;;;;;;5.83;3.72;;;;;;;16.89;81.01;100769.88;2137278;82;21432;-69
2022/08/31 07:52:34;;;;;;;6.72;3.05;;;;;;;16.88;80.99;100777.09;2168307;80;21033;-72
2022/08/31 07:55:46;;;;;;;4.65;3.65;;;;;;;16.87;80.82;100775.45;2167876;80;21026;-69
2022/08/31 07:59:06;;;;;;;5.92;3.27;;;;;;;16.86;80.95;100772.94;2200047;80;20947;-70
2022/08/31 08:02:08;;;;;;;5.08;2.62;;;;;;;16.85;81.16;100784.18;2184096;80;21047;-73
2022/08/31 08:05:21;;;;;;;5.70;3.08;;;;;;;16.87;80.92;100784.00;2196187;80;22266;-69
2022/08/31 08:08:31;;;;;;;5.80;3.60;;;;;;;16.83;80.61;100776.02;2187525;79;20975;-72
2022/08/31 08:11:43;;;;;;;8.63;3.70;;;;;;;16.83;80.81;100784.88;2186022;80;21019;-71
2022/08/31 08:14:58;;;;;;;3.62;2.70;;;;;;;16.85;80.90;100785.52;2168502;80;21026;-70
2022/08/31 08:18:12;;;;;;;4.12;2.85;;;;;;;16.92;81.05;100788.25;2188878;80;20967;-71
2022/08/31 08:21:15;;;;;;;5.25;2.92;;;;;;;16.96;80.90;100791.70;2191887;80;20995;-70
2022/08/31 08:24:16;;;;;;;4.03;2.52;;;;;;;16.97;80.54;100793.88;2169118;80;21487;-70
2022/08/31 08:27:26;;;;;;;5.67;2.20;;;;;;;17.00;80.65;100795.65;2186006;80;21048;-73
2022/08/31 08:30:35;;;;;;;3.27;2.02;;;;;;;17.02;79.64;100790.11;2171468;80;21517;-74
2022/08/31 08:33:36;;;;;;;6.42;3.75;;;;;;;17.04;79.24;100798.80;2199175;80;21048;-70
2022/08/31 08:36:39;;;;;;;6.58;3.60;;;;;;;17.06;79.06;100796.73;2167334;80;21550;-72
2022/08/31 08:39:41;;;;;;;7.95;3.72;;;;;;;17.17;79.14;100802.09;2197536;79;21608;-73
2022/08/31 08:42:47;;;;;;;7.10;3.33;;;;;;;17.30;79.07;100804.89;2186715;80;21011;-70
2022/08/31 08:45:51;;;;;;;5.35;3.10;;;;;;;17.41;78.32;100802.19;2123585;82;20975;-71
2022/08/31 08:49:00;;;;;;;8.28;2.22;;;;;;;17.52;78.33;100794.13;2136735;81;21010;-71
2022/08/31 08:52:23;;;;;;;3.15;2.20;;;;;;;17.65;77.74;100794.19;2192287;80;21043;-70
2022/08/31 08:55:36;;;;;;;5.25;2.30;;;;;;;17.75;77.78;100797.88;2169487;79;21049;-69
2022/08/31 08:58:43;;;;;;;4.22;2.33;;;;;;;18.01;77.65;100802.59;2182614;79;20946;-71
2022/08/31 09:01:48;;;;;;;3.10;1.87;;;;;;;18.27;77.70;100797.84;2165361;80;20985;-70
2022/08/31 09:05:13;;;;;;;4.85;1.92;;;;;;;18.54;76.80;100800.12;2192914;79;20983;-69
2022/08/31 09:08:50;;;;;;;3.37;2.02;;;;;;;18.83;76.58;100794.93;2192420;80;20910;-70
2022/08/31 09:12:06;;;;;;;3.58;1.75;;;;;;;19.10;75.82;100786.91;2186614;80;21492;-69
2022/08/31 09:15:34;;;;;;;5.50;1.90;;;;;;;19.50;75.42;100791.73;2189306;80;21030;-72
2022/08/31 09:18:53;;;;;;;4.47;2.08;;;;;;;19.91;74.76;100786.63;2186639;79;20971;-69
2022/08/31 09:22:00;;;;;;;5.58;1.85;;;;;;;20.30;73.19;100784.79;2191142;79;20963;-69
2022/08/31 09:25:05;;;;;;;6.20;1.95;;;;;;;20.73;72.74;100788.23;2167255;80;21552;-71
2022/08/31 09:28:46;;;;;;;3.72;1.60;;;;;;;21.03;71.56;100779.83;2189124;80;21160;-71
2022/08/31 09:31:48;;;;;;;3.72;1.57;;;;;;;21.31;70.73;100783.92;2189277;80;21138;-72
2022/08/31 09:35:00;;;;;;;2.22;1.47;;;;;;;21.62;69.03;100776.28;2194847;79;21569;-74
2022/08/31 09:38:09;;;;;;;;;;;;;;;21.81;67.02;100775.78;2190621;80;21066;-73
2022/08/31 09:41:31;;;;;;;5.33;1.50;;;;;;;21.48;66.25;100776.12;2194178;80;20116;-70
2022/08/31 09:44:38;;;;;;;3.92;1.50;;;;;;;21.36;66.44;100769.25;2208170;79;20993;-71
2022/08/31 09:47:47;;;;;;;3.10;1.60;;;;;;;21.34;65.76;100770.52;2193626;79;20990;-70
2022/08/31 09:50:56;;;;;;;3.98;1.90;;;;;;;21.16;66.05;100760.52;2189031;80;21523;-74
2022/08/31 09:58:00;;;;;;;3.17;1.57;;;;;;;21.35;66.17;100751.94;2189404;79;21457;-70
2022/08/31 10:01:12;;;;;;;3.12;1.50;;;;;;;21.44;65.82;100753.33;2190239;80;20938;-71
2022/08/31 10:04:28;;;;;;;4.70;2.75;;;;;;;21.50;65.85;100752.43;2190919;80;21026;-70
2022/08/31 10:07:42;;;;;;;5.80;2.12;;;;;;;21.56;65.61;100755.58;2186709;80;20939;-70
2022/08/31 10:10:48;;;;;;;3.75;1.62;;;;;;;21.63;64.24;100748.78;2167263;80;21001;-71
2022/08/31 10:13:57;;;;;;;5.12;1.87;;;;;;;21.57;64.80;100750.50;2161435;80;21042;-73
2022/08/31 10:17:14;;;;;;;3.22;1.45;;;;;;;21.68;65.04;100743.50;2191175;80;20963;-71
2022/08/31 10:20:20;;;;;;;4.40;1.55;;;;;;;22.09;64.79;100742.81;2192660;80;20994;-72
2022/08/31 10:23:53;;;;;;;4.85;1.60;;;;;;;22.01;63.62;100743.13;2190367;80;20987;-70
2022/08/31 10:26:55;;;;;;;3.02;2.05;;;;;;;21.88;62.39;100746.83;2190963;79;20989;-71
2022/08/31 10:30:17;;;;;;;4.08;1.65;;;;;;;21.55;60.74;100742.33;2189620;79;21018;-74
2022/08/31 10:35:01;;;;;;;2.87;1.85;;;;;;;21.16;61.85;100748.38;2194098;80;21034;-71
2022/08/31 10:36:38;;;;;;;1.87;1.60;;;;;;;20.87;62.19;100743.95;2189318;79;21019;-76
2022/08/31 10:39:47;;;;;;;2.35;1.70;;;;;;;20.69;62.69;100751.95;2193320;79;21011;-71
2022/08/31 10:43:09;;;;;;;5.30;1.32;;;;;;;20.45;61.68;100742.23;2189876;79;20990;-71
2022/08/31 10:46:11;;;;;;;3.52;1.30;;;;;;;19.99;62.42;100745.99;2178743;80;21106;-71
2022/08/31 10:49:13;;;;;;;3.60;1.32;;;;;;;19.63;61.68;100743.27;2172497;80;20986;-71
2022/08/31 10:52:28;;;;;;;2.77;1.27;;;;;;;19.25;61.50;100751.20;2191697;79;21030;-72
2022/08/31 10:55:55;;;;;;;1.65;1.50;;;;;;;18.94;61.88;100746.45;2194229;80;21014;-70
2022/08/31 10:59:34;;;;;;;2.67;1.55;;;;;;;18.71;63.05;100748.98;2194879;79;21068;-72
2022/08/31 11:03:03;;;;;;;2.80;1.53;;;;;;;18.59;63.47;100751.45;2190163;79;21058;-71
2022/08/31 11:06:38;;;;;;;2.92;1.70;;;;;;;18.53;63.95;100755.48;2166886;80;20968;-77
2022/08/31 11:09:53;;;;;;;1.72;1.25;;;;;;;18.50;64.21;100742.42;2188513;80;21002;-70
2022/08/31 11:13:02;;;;;;;2.47;1.27;;;;;;;18.56;64.55;100748.35;2193515;80;21481;-70
2022/08/31 11:16:32;;;;;;;2.62;1.57;;;;;;;18.66;64.93;100744.73;2195846;79;21028;-71
2022/08/31 11:20:08;;;;;;;2.12;1.50;;;;;;;18.75;65.04;100742.70;2169200;79;20994;-71
2022/08/31 11:23:44;;;;;;;3.00;1.55;;;;;;;18.83;65.23;100740.34;2193545;80;21532;-71
2022/08/31 11:27:00;;;;;;;4.47;1.60;;;;;;;18.92;65.32;100739.95;2193215;79;22075;-70
2022/08/31 11:30:26;;;;;;;3.50;1.90;;;;;;;19.05;65.20;100733.73;2176792;80;21065;-71
2022/08/31 11:33:30;;;;;;;2.10;1.40;;;;;;;19.18;65.26;100731.03;2189154;80;21089;-72
2022/08/31 11:37:02;;;;;;;3.42;1.80;;;;;;;19.32;65.11;100728.34;2170884;80;21026;-71
2022/08/31 11:40:10;;;;;;;5.53;1.72;;;;;;;19.44;64.77;100725.30;2189277;80;21513;-71
2022/08/31 11:43:36;;;;;;;4.00;1.30;;;;;;;19.60;64.81;100726.20;2199372;79;21109;-73
2022/08/31 11:46:41;;;;;;;2.83;1.42;;;;;;;19.69;64.14;100729.52;2185586;79;21588;-71
2022/08/31 11:49:50;;;;;;;2.52;1.67;;;;;;;19.81;63.64;100718.39;2192627;79;21713;-77
2022/08/31 11:52:55;;;;;;;4.60;1.70;;;;;;;19.82;61.91;100721.41;2175779;80;21452;-71
2022/08/31 11:56:01;;;;;;;3.17;1.67;;;;;;;19.80;62.48;100710.54;2191794;79;20956;-71
2022/08/31 11:59:30;;;;;;;3.47;1.57;;;;;;;19.93;62.55;100708.63;2201055;80;21009;-71
2022/08/31 12:02:37;;;;;;;1.67;1.57;;;;;;;20.08;61.77;100708.34;2134971;80;21583;-70
2022/08/31 12:05:55;;;;;;;2.75;1.50;;;;;;;20.21;61.44;100712.81;2187101;80;21611;-70
2022/08/31 12:08:59;;;;;;;2.25;1.50;;;;;;;20.45;61.68;100707.72;2184911;80;21004;-74
2022/08/31 12:12:06;;;;;;;2.95;1.70;;;;;;;20.58;59.97;100704.44;2179156;80;21013;-70
2022/08/31 12:15:31;;;;;;;1.50;1.05;;;;;;;20.68;57.58;100705.29;2197026;79;21062;-70
2022/08/31 12:26:59;;;;;;;1.98;1.42;;;;;;;21.17;55.93;100694.70;2183970;80;20979;-70
2022/08/31 12:30:21;;;;;;;2.05;1.40;;;;;;;21.37;54.48;100695.38;2191049;79;20997;-76
2022/08/31 12:33:26;;;;;;;2.62;1.30;;;;;;;21.54;54.64;100696.95;2188149;80;20994;-70
2022/08/31 12:36:32;;;;;;;1.50;1.40;;;;;;;21.85;53.89;100691.91;2191084;80;21469;-70
2022/08/31 12:39:33;;;;;;;1.75;1.22;;;;;;;21.87;52.38;100691.13;2192699;80;21529;-71
2022/08/31 12:42:58;;;;;;;2.15;1.37;;;;;;;21.61;47.86;100690.94;2190515;79;20979;-70
2022/08/31 12:46:20;;;;;;;2.90;1.30;;;;;;;21.26;50.12;100691.50;2176321;80;21014;-71
2022/08/31 12:49:50;;;;;;;2.30;1.30;;;;;;;21.09;49.90;100689.08;2156498;80;21473;-70
2022/08/31 12:53:11;;;;;;;;;;;;;;;21.07;49.68;100691.17;2203577;79;21493;-71
2022/08/31 12:56:35;;;;;;;2.05;1.40;;;;;;;21.09;50.40;100693.63;2196224;79;20124;-70
2022/08/31 12:59:44;;;;;;;4.35;1.40;;;;;;;21.23;50.36;100685.70;2187267;80;20963;-69
2022/08/31 13:02:50;;;;;;;3.00;1.53;;;;;;;21.40;49.28;100686.83;2193696;79;21073;-71
2022/08/31 13:06:08;;;;;;;2.50;1.15;;;;;;;21.58;51.25;100681.13;2191622;80;20982;-70
2022/08/31 13:09:31;;;;;;;1.25;1.15;;;;;;;21.61;49.25;100680.66;2165446;79;20958;-70
2022/08/31 13:12:33;;;;;;;1.30;1.10;;;;;;;21.58;50.54;100675.19;2195812;80;21019;-70
2022/08/31 13:15:42;;;;;;;1.30;1.17;;;;;;;21.71;49.04;100670.98;2190430;80;21805;-71
2022/08/31 13:18:49;;;;;;;1.40;1.30;;;;;;;21.76;49.58;100670.82;2191440;80;20943;-72
2022/08/31 13:21:59;;;;;;;1.30;1.20;;;;;;;21.80;50.01;100666.09;2194850;80;20960;-70
2022/08/31 13:25:15;;;;;;;1.50;1.20;;;;;;;22.01;50.50;100665.30;2194900;80;21030;-70
2022/08/31 13:28:24;;;;;;;1.45;1.00;;;;;;;22.24;47.44;100660.53;2188245;79;20981;-70
2022/08/31 13:31:30;;;;;;;2.12;1.10;;;;;;;22.30;48.39;100660.95;2190736;80;21006;-75
2022/08/31 13:34:40;;;;;;;4.00;1.10;;;;;;;22.36;48.69;100660.05;2196872;80;20995;-70
2022/08/31 13:38:02;;;;;;;1.98;1.20;;;;;;;22.15;45.65;100661.35;2195053;80;21587;-71
2022/08/31 13:45:57;;;;;;;0.90;0.90;;;;;;;22.29;48.29;100658.78;2191521;79;21003;-71
2022/08/31 13:49:00;;;;;;;3.00;1.40;;;;;;;22.19;46.31;100661.23;2193311;80;20986;-73
2022/08/31 13:51:56;;;;;;;1.72;0.93;;;;;;;22.22;46.33;100658.07;2172742;80;20934;-71
2022/08/31 13:55:11;;;;;;;2.42;1.30;;;;;;;22.20;44.06;100655.30;2196703;80;21055;-72
2022/08/31 13:58:31;;;;;;;1.20;1.10;;;;;;;21.91;44.90;100658.57;2197942;79;21128;-71
2022/08/31 14:01:35;;;;;;;1.50;1.17;;;;;;;21.89;46.59;100650.39;2171533;79;21564;-80
2022/08/31 14:04:47;;;;;;;4.17;1.22;;;;;;;21.94;45.90;100658.64;2200435;79;21009;-74
2022/08/31 14:07:56;;;;;;;1.75;1.10;;;;;;;21.92;46.03;100655.34;2187923;79;21047;-75
2022/08/31 14:10:59;;;;;;;1.32;1.20;;;;;;;21.80;46.01;100651.77;2187476;80;20928;-78
2022/08/31 14:14:07;;;;;;;1.30;1.20;;;;;;;21.84;47.11;100652.42;2199620;80;20999;-76
2022/08/31 14:17:17;;;;;;;3.02;1.10;;;;;;;21.72;46.66;100646.16;2191071;79;21025;-74
2022/08/31 14:20:44;;;;;;;1.45;1.15;;;;;;;21.70;46.68;100649.59;2167879;80;20984;-71
2022/08/31 14:23:52;;;;;;;2.47;1.05;;;;;;;21.63;47.16;100644.82;2194514;79;21492;-72
2022/08/31 14:26:55;;;;;;;2.12;1.27;;;;;;;21.58;46.99;100650.07;2163566;79;21442;-71
2022/08/31 14:29:57;;;;;;;10.43;8.03;;;;;;;21.36;46.52;100659.93;2192178;79;21066;-72
2022/08/31 14:32:58;;;;;;;3.40;2.60;;;;;;;21.14;46.85;100656.02;2191854;80;20997;-72
2022/08/31 14:36:02;;;;;;;4.03;1.90;;;;;;;21.10;47.23;100661.05;2198722;80;21486;-81
2022/08/31 14:39:03;;;;;;;1.32;1.22;;;;;;;21.20;48.12;100651.08;2191506;80;21015;-71
2022/08/31 14:42:15;;;;;;;4.05;1.60;;;;;;;21.22;48.24;100655.73;2193524;79;21088;-80
2022/08/31 14:45:17;;;;;;;3.12;1.40;;;;;;;21.18;47.99;100653.20;2194284;80;21494;-76
2022/08/31 14:48:18;;;;;;;2.33;1.50;;;;;;;21.03;47.68;100650.33;2196966;79;20998;-71
2022/08/31 14:51:20;;;;;;;1.27;1.15;;;;;;;20.97;47.82;100653.08;2175955;80;20994;-73
2022/08/31 14:54:23;;;;;;;4.20;1.40;;;;;;;20.94;48.21;100647.59;2170182;80;21023;-71
2022/08/31 14:57:25;;;;;;;1.90;1.22;;;;;;;20.92;47.80;100655.11;2188812;80;21507;-71
2022/08/31 15:00:30;;;;;;;4.90;3.02;;;;;;;20.87;47.76;100651.42;2166779;79;21002;-83
2022/08/31 15:03:32;;;;;;;4.08;2.40;;;;;;;20.79;47.83;100649.83;2166946;80;21482;-75